Time;durP1;ratioP1;P1;durP2;ratioP2;P2;SDS_P1;SDS_P2;PMS_P1;PMS_P2;Temp;Humidity;BMP_temperature;BMP_pressure;BME280_temperature;BME280_humidity;BME280_pressure;Samples;Min_cycle;Max_cycle;Signal;HPM_P1;HPM_P2
2023/07/19 00:01:28;;;;;;;10.23;5.32;;;;;;;;;;5054545;28;20044;-84
2023/07/19 00:03:54;;;;;;;9.85;4.63;;;;;;;;;;5053490;28;20078;-84
2023/07/19 00:06:19;;;;;;;11.18;5.65;;;;;;;;;;5054414;28;20045;-84
2023/07/19 00:08:44;;;;;;;12.15;5.32;;;;;;;;;;5054260;28;20025;-84
2023/07/19 00:11:10;;;;;;;8.60;4.97;;;;;;;;;;5053309;28;20062;-84
2023/07/19 00:13:35;;;;;;;9.05;5.22;;;;;;;;;;5054447;28;20039;-85
2023/07/19 00:16:01;;;;;;;9.75;5.75;;;;;;;;;;5053259;28;20040;-84
2023/07/19 00:18:26;;;;;;;8.93;5.18;;;;;;;;;;5053819;28;20036;-84
2023/07/19 00:20:52;;;;;;;10.13;5.60;;;;;;;;;;5054623;28;20037;-84
2023/07/19 00:23:17;;;;;;;12.30;5.43;;;;;;;;;;5054562;28;20032;-87
2023/07/19 00:25:43;;;;;;;8.35;4.90;;;;;;;;;;5054343;28;20092;-84
2023/07/19 00:28:08;;;;;;;14.02;5.38;;;;;;;;;;5054603;28;20029;-84
2023/07/19 00:30:33;;;;;;;10.73;5.25;;;;;;;;;;5020387;28;20033;-84
2023/07/19 00:32:59;;;;;;;10.50;5.43;;;;;;;;;;5054138;28;20133;-84
2023/07/19 00:35:25;;;;;;;11.63;5.50;;;;;;;;;;5054448;28;20025;-85
2023/07/19 00:37:51;;;;;;;11.68;5.82;;;;;;;;;;5054477;28;20029;-85
2023/07/19 00:40:16;;;;;;;10.75;5.50;;;;;;;;;;5055509;28;20352;-85
2023/07/19 00:42:41;;;;;;;11.98;5.50;;;;;;;;;;5055522;28;20072;-84
2023/07/19 00:45:07;;;;;;;7.65;5.53;;;;;;;;;;5053670;28;20067;-84
2023/07/19 00:47:33;;;;;;;8.35;5.40;;;;;;;;;;5053541;28;20055;-84
2023/07/19 00:49:58;;;;;;;11.02;5.85;;;;;;;;;;5053285;28;20421;-85
2023/07/19 00:52:24;;;;;;;10.73;5.88;;;;;;;;;;5036491;28;20758;-84
2023/07/19 00:54:49;;;;;;;13.32;5.68;;;;;;;;;;5053535;28;20017;-84
2023/07/19 00:57:15;;;;;;;9.35;5.22;;;;;;;;;;5037893;28;20029;-85
2023/07/19 00:59:40;;;;;;;9.27;5.25;;;;;;;;;;5037598;28;20037;-85
2023/07/19 01:02:06;;;;;;;7.90;5.30;;;;;;;;;;5037255;28;20091;-84
2023/07/19 01:04:31;;;;;;;7.72;5.57;;;;;;;;;;5053031;28;20029;-85
2023/07/19 01:06:57;;;;;;;8.52;5.07;;;;;;;;;;5036013;28;20037;-84
2023/07/19 01:09:22;;;;;;;10.68;5.35;;;;;;;;;;5052811;28;20029;-84
2023/07/19 01:11:48;;;;;;;10.43;5.05;;;;;;;;;;5036107;28;20029;-84
2023/07/19 01:14:13;;;;;;;7.10;5.25;;;;;;;;;;5053886;28;20368;-85
2023/07/19 01:16:39;;;;;;;8.48;5.10;;;;;;;;;;5020033;28;20040;-84
2023/07/19 01:19:04;;;;;;;13.20;5.40;;;;;;;;;;5052682;28;20040;-84
2023/07/19 01:21:30;;;;;;;10.77;5.50;;;;;;;;;;5054113;28;20029;-85
2023/07/19 01:23:55;;;;;;;12.65;5.43;;;;;;;;;;5052701;28;20025;-83
2023/07/19 01:26:21;;;;;;;9.35;4.97;;;;;;;;;;5036055;28;20120;-84
2023/07/19 01:28:46;;;;;;;8.48;5.10;;;;;;;;;;5036279;28;20051;-84
2023/07/19 01:31:14;;;;;;;8.13;5.00;;;;;;;;;;5053924;28;20028;-84
2023/07/19 01:33:40;;;;;;;7.13;5.05;;;;;;;;;;5019878;28;20068;-84
2023/07/19 01:36:05;;;;;;;8.88;4.80;;;;;;;;;;5052244;28;20061;-84
2023/07/19 01:38:31;;;;;;;8.43;5.30;;;;;;;;;;5053759;28;20115;-83
2023/07/19 01:40:56;;;;;;;7.35;4.60;;;;;;;;;;5052579;28;20032;-84
2023/07/19 01:43:22;;;;;;;10.23;5.05;;;;;;;;;;5053530;28;20033;-84
2023/07/19 01:45:47;;;;;;;7.25;5.00;;;;;;;;;;5053542;28;20414;-84
2023/07/19 01:48:13;;;;;;;7.55;4.65;;;;;;;;;;5052661;28;20461;-85
2023/07/19 01:50:38;;;;;;;6.93;4.90;;;;;;;;;;5018965;28;20499;-84
2023/07/19 01:53:04;;;;;;;6.97;4.72;;;;;;;;;;5052287;28;20552;-84
2023/07/19 01:55:30;;;;;;;10.88;4.95;;;;;;;;;;5035843;28;20025;-84
2023/07/19 01:57:55;;;;;;;6.50;4.95;;;;;;;;;;5035886;28;20025;-84
2023/07/19 02:00:21;;;;;;;7.82;4.53;;;;;;;;;;5035745;28;20440;-84
2023/07/19 02:02:46;;;;;;;7.28;4.30;;;;;;;;;;5052247;28;20033;-85
2023/07/19 02:05:12;;;;;;;9.73;4.80;;;;;;;;;;5054017;28;20096;-85
2023/07/19 02:07:37;;;;;;;6.90;5.13;;;;;;;;;;5057195;28;20459;-84
2023/07/19 02:10:04;;;;;;;7.07;4.60;;;;;;;;;;5056993;28;20024;-84
2023/07/19 02:12:30;;;;;;;9.60;4.53;;;;;;;;;;5056298;28;20025;-85
2023/07/19 02:14:55;;;;;;;7.90;4.32;;;;;;;;;;5055891;28;20454;-84
2023/07/19 02:17:21;;;;;;;5.55;4.13;;;;;;;;;;5055726;28;20134;-85
2023/07/19 02:19:47;;;;;;;7.78;4.85;;;;;;;;;;5055460;28;20025;-85
2023/07/19 02:22:13;;;;;;;7.95;4.25;;;;;;;;;;5039427;28;20044;-84
2023/07/19 02:24:38;;;;;;;6.22;4.25;;;;;;;;;;5055529;28;20025;-84
2023/07/19 02:27:04;;;;;;;11.85;4.80;;;;;;;;;;5038827;28;20083;-84
2023/07/19 02:29:29;;;;;;;7.40;4.65;;;;;;;;;;5056646;28;20032;-85
2023/07/19 02:31:55;;;;;;;8.35;4.55;;;;;;;;;;5056752;28;20102;-84
2023/07/19 02:34:21;;;;;;;5.95;4.82;;;;;;;;;;5056709;28;20432;-84
2023/07/19 02:36:48;;;;;;;6.43;4.78;;;;;;;;;;5055464;28;20064;-84
2023/07/19 02:39:13;;;;;;;13.27;5.13;;;;;;;;;;5038754;28;20512;-85
2023/07/19 02:41:39;;;;;;;10.25;4.88;;;;;;;;;;5056484;28;20116;-85
2023/07/19 02:44:04;;;;;;;7.75;4.72;;;;;;;;;;5055129;28;20025;-84
2023/07/19 02:46:30;;;;;;;7.65;4.80;;;;;;;;;;5056546;28;20029;-84
2023/07/19 02:48:55;;;;;;;9.25;4.70;;;;;;;;;;5055326;28;20024;-84
2023/07/19 02:51:21;;;;;;;6.93;4.72;;;;;;;;;;5055708;28;20050;-84
2023/07/19 02:53:47;;;;;;;7.47;5.10;;;;;;;;;;5021958;28;20090;-85
2023/07/19 02:56:12;;;;;;;9.73;4.90;;;;;;;;;;5056058;28;20025;-84
2023/07/19 02:58:38;;;;;;;9.07;5.30;;;;;;;;;;5054964;28;20088;-84
2023/07/19 03:01:04;;;;;;;7.25;5.38;;;;;;;;;;5038899;28;20021;-85
2023/07/19 03:03:29;;;;;;;15.15;5.20;;;;;;;;;;5056013;28;20441;-84
2023/07/19 03:05:58;;;;;;;10.77;5.40;;;;;;;;;;5055630;28;20411;-84
2023/07/19 03:08:23;;;;;;;10.70;5.65;;;;;;;;;;5054902;28;20448;-84
2023/07/19 03:10:53;;;;;;;7.60;5.40;;;;;;;;;;5038255;28;20068;-84
2023/07/19 03:13:19;;;;;;;9.25;5.70;;;;;;;;;;5054642;28;20028;-84
2023/07/19 03:15:45;;;;;;;7.40;5.43;;;;;;;;;;5054491;28;20024;-84
2023/07/19 03:18:10;;;;;;;10.15;5.72;;;;;;;;;;5037705;28;20025;-84
2023/07/19 03:20:36;;;;;;;7.07;5.72;;;;;;;;;;5055767;28;20048;-84
2023/07/19 03:23:01;;;;;;;8.43;5.78;;;;;;;;;;5037789;28;20483;-84
2023/07/19 03:25:28;;;;;;;9.05;5.72;;;;;;;;;;5054459;28;20433;-84
2023/07/19 03:27:54;;;;;;;11.20;6.05;;;;;;;;;;5037945;28;20040;-83
2023/07/19 03:30:19;;;;;;;6.72;5.80;;;;;;;;;;5054259;28;20025;-84
2023/07/19 03:32:44;;;;;;;8.77;5.45;;;;;;;;;;5055248;28;20039;-85
2023/07/19 03:35:10;;;;;;;9.60;5.82;;;;;;;;;;5054577;28;20475;-85
2023/07/19 03:37:36;;;;;;;10.35;5.78;;;;;;;;;;5055316;28;20118;-85
2023/07/19 03:40:01;;;;;;;7.90;6.05;;;;;;;;;;5054225;28;20075;-85
2023/07/19 03:42:27;;;;;;;10.85;5.88;;;;;;;;;;5055804;28;20415;-85
2023/07/19 03:44:52;;;;;;;12.85;5.53;;;;;;;;;;5057041;28;20024;-85
2023/07/19 03:47:18;;;;;;;11.13;5.50;;;;;;;;;;5058179;28;20509;-86
2023/07/19 03:49:43;;;;;;;7.15;4.65;;;;;;;;;;5058965;28;20108;-87
2023/07/19 03:52:09;;;;;;;13.00;5.25;;;;;;;;;;5076040;28;20074;-86
2023/07/19 03:54:34;;;;;;;6.43;5.07;;;;;;;;;;5078719;28;20041;-84
2023/07/19 03:57:00;;;;;;;7.47;5.32;;;;;;;;;;5078263;28;20044;-84
2023/07/19 03:59:27;;;;;;;7.80;5.43;;;;;;;;;;5077558;28;20019;-84
2023/07/19 04:01:52;;;;;;;7.20;5.25;;;;;;;;;;5067551;28;20047;-85
2023/07/19 04:04:17;;;;;;;7.55;5.43;;;;;;;;;;5036923;28;20021;-86
2023/07/19 04:06:43;;;;;;;10.32;6.00;;;;;;;;;;5054399;28;20037;-85
2023/07/19 04:09:08;;;;;;;11.85;5.57;;;;;;;;;;5037092;28;20021;-85
2023/07/19 04:11:34;;;;;;;7.97;5.32;;;;;;;;;;5054485;28;20028;-85
2023/07/19 04:14:00;;;;;;;9.23;5.97;;;;;;;;;;5053330;28;20025;-85
2023/07/19 04:16:25;;;;;;;13.13;6.00;;;;;;;;;;5036480;28;20571;-86
2023/07/19 04:18:51;;;;;;;9.73;6.60;;;;;;;;;;5054470;28;20021;-86
2023/07/19 04:21:16;;;;;;;14.82;7.28;;;;;;;;;;5054334;28;20024;-86
2023/07/19 04:23:42;;;;;;;12.60;7.10;;;;;;;;;;5037217;28;20444;-86
2023/07/19 04:26:07;;;;;;;14.40;6.78;;;;;;;;;;5036646;28;20103;-86
2023/07/19 04:28:32;;;;;;;13.88;6.13;;;;;;;;;;5052679;28;20025;-85
2023/07/19 04:30:58;;;;;;;12.52;5.57;;;;;;;;;;5052879;28;20021;-86
2023/07/19 04:33:23;;;;;;;10.63;5.82;;;;;;;;;;5036439;28;20468;-86
2023/07/19 04:35:50;;;;;;;14.68;5.13;;;;;;;;;;5053147;28;20530;-86
2023/07/19 04:38:16;;;;;;;7.28;4.82;;;;;;;;;;5036374;28;20116;-85
2023/07/19 04:40:41;;;;;;;9.30;5.65;;;;;;;;;;5052986;28;20100;-85
2023/07/19 04:43:07;;;;;;;16.48;6.32;;;;;;;;;;5052877;28;20457;-85
2023/07/19 04:45:32;;;;;;;10.70;6.30;;;;;;;;;;5054069;28;20412;-85
2023/07/19 04:47:58;;;;;;;14.13;6.63;;;;;;;;;;5053878;28;20033;-86
2023/07/19 04:50:27;;;;;;;12.15;6.20;;;;;;;;;;5054080;28;20029;-85
2023/07/19 04:52:53;;;;;;;14.90;6.88;;;;;;;;;;5053998;28;20032;-85
2023/07/19 04:55:19;;;;;;;13.20;6.60;;;;;;;;;;5052808;28;20032;-85
2023/07/19 04:57:45;;;;;;;15.23;7.03;;;;;;;;;;5053990;28;20402;-84
2023/07/19 05:00:14;;;;;;;17.85;7.72;;;;;;;;;;5052778;28;20128;-85
2023/07/19 05:02:40;;;;;;;17.17;7.60;;;;;;;;;;5052547;28;20040;-85
2023/07/19 05:05:06;;;;;;;15.25;6.82;;;;;;;;;;5052633;28;20123;-85
2023/07/19 05:07:34;;;;;;;12.25;7.07;;;;;;;;;;5036255;28;20120;-84
2023/07/19 05:10:00;;;;;;;16.15;7.35;;;;;;;;;;5036162;28;20551;-85
2023/07/19 05:12:25;;;;;;;17.67;6.63;;;;;;;;;;5053760;28;20025;-84
2023/07/19 05:14:51;;;;;;;14.93;6.05;;;;;;;;;;5052587;28;20426;-85
2023/07/19 05:17:16;;;;;;;8.77;5.90;;;;;;;;;;5052637;28;20029;-85
2023/07/19 05:19:42;;;;;;;14.32;6.68;;;;;;;;;;5053690;28;20122;-85
2023/07/19 05:22:07;;;;;;;9.55;5.93;;;;;;;;;;5053261;28;20356;-84
2023/07/19 05:24:33;;;;;;;12.05;6.35;;;;;;;;;;5053443;28;20028;-84
2023/07/19 05:26:58;;;;;;;10.88;6.15;;;;;;;;;;5053889;28;20922;-85
2023/07/19 05:29:24;;;;;;;14.02;6.50;;;;;;;;;;5053455;28;20440;-84
2023/07/19 05:31:49;;;;;;;13.75;6.05;;;;;;;;;;5052660;28;20029;-80
2023/07/19 05:34:14;;;;;;;14.52;6.22;;;;;;;;;;5052852;28;20032;-83
2023/07/19 05:36:40;;;;;;;23.65;6.90;;;;;;;;;;5053548;28;20419;-82
2023/07/19 05:39:05;;;;;;;11.18;6.13;;;;;;;;;;5035892;28;20036;-82
2023/07/19 05:41:31;;;;;;;19.08;6.22;;;;;;;;;;5057313;28;20027;-83
2023/07/19 05:43:57;;;;;;;12.02;6.00;;;;;;;;;;5056006;28;20029;-82
2023/07/19 05:46:23;;;;;;;12.95;6.40;;;;;;;;;;5057219;28;20040;-83
2023/07/19 05:48:49;;;;;;;16.20;6.45;;;;;;;;;;5057115;28;20032;-83
2023/07/19 05:51:14;;;;;;;14.57;5.97;;;;;;;;;;5056385;28;20025;-83
2023/07/19 05:53:40;;;;;;;11.90;5.80;;;;;;;;;;5056231;28;20029;-83
2023/07/19 05:56:05;;;;;;;10.88;6.50;;;;;;;;;;5056157;28;20365;-83
2023/07/19 05:58:31;;;;;;;9.20;6.13;;;;;;;;;;5055700;28;20021;-83
2023/07/19 06:00:56;;;;;;;8.13;6.25;;;;;;;;;;5055863;28;20060;-83
2023/07/19 06:03:22;;;;;;;10.88;6.68;;;;;;;;;;5055839;28;20041;-83
2023/07/19 06:05:47;;;;;;;14.32;7.18;;;;;;;;;;5056835;28;20045;-83
2023/07/19 06:08:14;;;;;;;12.93;6.85;;;;;;;;;;5056814;28;20075;-84
2023/07/19 06:10:39;;;;;;;13.32;7.50;;;;;;;;;;5056755;28;20025;-83
2023/07/19 06:13:05;;;;;;;12.40;7.53;;;;;;;;;;5055837;28;20363;-82
2023/07/19 06:15:32;;;;;;;17.35;7.60;;;;;;;;;;5055509;28;20086;-82
2023/07/19 06:17:57;;;;;;;17.52;8.15;;;;;;;;;;5055420;28;20032;-82
2023/07/19 06:20:23;;;;;;;16.50;8.25;;;;;;;;;;5055384;28;20372;-83
2023/07/19 06:22:48;;;;;;;14.82;7.95;;;;;;;;;;5038869;28;20082;-82
2023/07/19 06:25:15;;;;;;;21.80;8.20;;;;;;;;;;5039228;28;20028;-83
2023/07/19 06:27:40;;;;;;;13.35;8.40;;;;;;;;;;5054994;28;20052;-81
2023/07/19 06:30:06;;;;;;;15.45;8.52;;;;;;;;;;5038544;28;20452;-81
2023/07/19 06:32:32;;;;;;;19.23;8.40;;;;;;;;;;5055306;28;20025;-83
2023/07/19 06:34:57;;;;;;;12.52;8.57;;;;;;;;;;5056268;28;20032;-83
2023/07/19 06:37:23;;;;;;;14.88;8.57;;;;;;;;;;5056089;28;20029;-82
2023/07/19 06:39:48;;;;;;;15.80;8.23;;;;;;;;;;5038527;28;20391;-82
2023/07/19 06:42:14;;;;;;;14.10;8.10;;;;;;;;;;5054461;28;20094;-82
2023/07/19 06:44:39;;;;;;;14.95;7.50;;;;;;;;;;5054816;28;20032;-83
2023/07/19 06:47:05;;;;;;;14.25;7.60;;;;;;;;;;5056290;28;20384;-82
2023/07/19 06:49:30;;;;;;;7.43;5.63;;;;;;;;;;5054895;28;20341;-82
2023/07/19 06:51:55;;;;;;;8.10;5.60;;;;;;;;;;5037535;28;20025;-82
2023/07/19 06:54:21;;;;;;;9.40;5.15;;;;;;;;;;5054660;28;20478;-81
2023/07/19 06:56:46;;;;;;;11.05;6.05;;;;;;;;;;5054391;28;20440;-82
2023/07/19 06:59:13;;;;;;;9.95;6.07;;;;;;;;;;5054575;28;20021;-82
2023/07/19 07:01:39;;;;;;;8.63;6.20;;;;;;;;;;5038335;28;20429;-82
2023/07/19 07:04:07;;;;;;;9.30;6.07;;;;;;;;;;5055982;28;20112;-83
2023/07/19 07:06:32;;;;;;;10.00;5.20;;;;;;;;;;5054528;28;20041;-83
2023/07/19 07:08:58;;;;;;;8.35;5.65;;;;;;;;;;5037940;28;20048;-83
2023/07/19 07:11:24;;;;;;;11.73;5.93;;;;;;;;;;5037907;28;20086;-81
2023/07/19 07:13:49;;;;;;;9.35;6.38;;;;;;;;;;5037979;28;20036;-80
2023/07/19 07:16:14;;;;;;;9.20;6.68;;;;;;;;;;5054577;28;20045;-80
2023/07/19 07:18:40;;;;;;;9.45;6.22;;;;;;;;;;5055550;28;20037;-81
2023/07/19 07:21:05;;;;;;;8.60;6.05;;;;;;;;;;5055623;28;20036;-80
2023/07/19 07:23:31;;;;;;;7.70;5.40;;;;;;;;;;5055087;28;20035;-80
2023/07/19 07:25:56;;;;;;;10.88;6.05;;;;;;;;;;5054836;28;20021;-82
2023/07/19 07:28:22;;;;;;;10.73;6.00;;;;;;;;;;5054103;28;20067;-82
2023/07/19 07:30:47;;;;;;;12.00;6.30;;;;;;;;;;5054131;28;20020;-82
2023/07/19 07:33:13;;;;;;;12.70;5.70;;;;;;;;;;5053925;28;20435;-82
2023/07/19 07:35:38;;;;;;;7.82;5.40;;;;;;;;;;5037616;28;20433;-82
2023/07/19 07:38:04;;;;;;;9.18;6.03;;;;;;;;;;5037202;28;20112;-83
2023/07/19 07:40:29;;;;;;;10.75;5.85;;;;;;;;;;5054385;28;20056;-83
2023/07/19 07:42:55;;;;;;;15.85;6.00;;;;;;;;;;5037377;28;20032;-82
2023/07/19 07:45:20;;;;;;;13.60;6.43;;;;;;;;;;5055034;28;20021;-82
2023/07/19 07:47:46;;;;;;;16.17;5.72;;;;;;;;;;5054929;28;20433;-82
2023/07/19 07:50:12;;;;;;;16.38;6.03;;;;;;;;;;5054069;28;20032;-83
2023/07/19 07:52:37;;;;;;;8.80;5.72;;;;;;;;;;5053500;28;20484;-82
2023/07/19 07:55:06;;;;;;;8.27;6.00;;;;;;;;;;5037064;28;20060;-83
2023/07/19 07:57:37;;;;;;;9.68;5.43;;;;;;;;;;5037605;28;20020;-83
2023/07/19 08:00:06;;;;;;;13.30;5.95;;;;;;;;;;5037726;28;20040;-83
2023/07/19 08:02:31;;;;;;;6.47;5.30;;;;;;;;;;5020436;28;20083;-81
2023/07/19 08:04:56;;;;;;;6.07;5.43;;;;;;;;;;5053322;28;20040;-82
2023/07/19 08:07:22;;;;;;;7.05;4.95;;;;;;;;;;5053301;28;20122;-82
2023/07/19 08:09:48;;;;;;;6.03;4.70;;;;;;;;;;5054393;28;20037;-82
2023/07/19 08:12:14;;;;;;;8.98;5.68;;;;;;;;;;5020520;28;20025;-83
2023/07/19 08:14:40;;;;;;;6.95;5.32;;;;;;;;;;5020452;28;20119;-82
2023/07/19 08:17:05;;;;;;;9.05;5.88;;;;;;;;;;5053504;28;20694;-82
2023/07/19 08:19:31;;;;;;;9.10;6.13;;;;;;;;;;5036502;28;20029;-83
2023/07/19 08:22:04;;;;;;;8.63;6.30;;;;;;;;;;5052991;28;20028;-83
2023/07/19 08:24:29;;;;;;;7.05;5.57;;;;;;;;;;5053243;28;20439;-82
2023/07/19 08:26:55;;;;;;;9.20;5.85;;;;;;;;;;5054254;28;20120;-83
2023/07/19 08:29:20;;;;;;;14.10;6.80;;;;;;;;;;5054504;28;20029;-81
2023/07/19 08:31:45;;;;;;;10.98;6.40;;;;;;;;;;5053242;28;20361;-82
2023/07/19 08:34:11;;;;;;;11.63;6.30;;;;;;;;;;5052882;28;20522;-82
2023/07/19 08:36:36;;;;;;;11.40;6.03;;;;;;;;;;5052597;28;20087;-82
2023/07/19 08:39:02;;;;;;;14.00;6.43;;;;;;;;;;5052804;28;20021;-81
2023/07/19 08:41:29;;;;;;;7.88;6.60;;;;;;;;;;5019685;28;20029;-82
2023/07/19 08:43:55;;;;;;;11.25;6.32;;;;;;;;;;5020187;28;20036;-82
2023/07/19 08:46:21;;;;;;;11.45;6.53;;;;;;;;;;5053196;28;20671;-82
2023/07/19 08:48:49;;;;;;;9.55;6.43;;;;;;;;;;5052859;28;20048;-82
2023/07/19 08:51:15;;;;;;;10.95;6.00;;;;;;;;;;5052530;28;20086;-82
2023/07/19 08:53:41;;;;;;;12.77;6.10;;;;;;;;;;5054024;28;20423;-83
2023/07/19 08:56:06;;;;;;;14.32;6.25;;;;;;;;;;5053809;28;20025;-82
2023/07/19 08:58:37;;;;;;;13.45;6.60;;;;;;;;;;5052697;28;20166;-81
2023/07/19 09:01:02;;;;;;;9.48;5.93;;;;;;;;;;5019903;28;20036;-82
2023/07/19 09:03:28;;;;;;;10.82;6.35;;;;;;;;;;5052556;28;20044;-82
2023/07/19 09:05:53;;;;;;;9.02;5.82;;;;;;;;;;5053233;28;20053;-81
2023/07/19 09:08:19;;;;;;;10.00;5.45;;;;;;;;;;5052542;28;20067;-82
2023/07/19 09:10:45;;;;;;;14.77;5.72;;;;;;;;;;5053840;28;20029;-82
2023/07/19 09:13:10;;;;;;;11.38;5.90;;;;;;;;;;5037000;28;20036;-82
2023/07/19 09:15:36;;;;;;;8.93;6.00;;;;;;;;;;5057954;28;20388;-81
2023/07/19 09:18:06;;;;;;;13.68;5.63;;;;;;;;;;5057799;28;20120;-82
2023/07/19 09:20:33;;;;;;;11.27;5.80;;;;;;;;;;5040270;28;20123;-83
2023/07/19 09:23:02;;;;;;;12.77;5.25;;;;;;;;;;5023721;28;20037;-82
2023/07/19 09:25:28;;;;;;;11.73;5.80;;;;;;;;;;5040370;28;20033;-82
2023/07/19 09:27:53;;;;;;;17.05;5.70;;;;;;;;;;5056625;28;20082;-82
2023/07/19 09:30:19;;;;;;;8.45;5.30;;;;;;;;;;5056138;28;20025;-82
2023/07/19 09:32:44;;;;;;;10.00;5.43;;;;;;;;;;5057725;28;20033;-82
2023/07/19 09:35:10;;;;;;;8.25;5.20;;;;;;;;;;5037041;28;20025;-82
2023/07/19 09:37:35;;;;;;;11.77;5.03;;;;;;;;;;5057612;28;20032;-81
2023/07/19 09:40:02;;;;;;;7.03;5.25;;;;;;;;;;5057704;28;20070;-81
2023/07/19 09:42:29;;;;;;;8.67;4.70;;;;;;;;;;5040274;28;20032;-81
2023/07/19 09:44:55;;;;;;;7.63;4.78;;;;;;;;;;5023601;28;20734;-81
2023/07/19 09:47:20;;;;;;;8.43;4.75;;;;;;;;;;5039685;28;20086;-82
2023/07/19 09:49:47;;;;;;;8.32;4.50;;;;;;;;;;5039273;28;20051;-82
2023/07/19 09:52:16;;;;;;;6.30;4.47;;;;;;;;;;5039572;28;20032;-82
2023/07/19 09:54:42;;;;;;;4.95;4.43;;;;;;;;;;5057507;28;20460;-82
2023/07/19 09:57:07;;;;;;;5.10;4.60;;;;;;;;;;5039814;28;20029;-81
2023/07/19 09:59:44;;;;;;;9.90;4.90;;;;;;;;;;5039702;28;20025;-81
2023/07/19 10:02:10;;;;;;;14.50;4.80;;;;;;;;;;5040209;28;20033;-81
2023/07/19 10:04:39;;;;;;;6.45;4.85;;;;;;;;;;5040706;28;20444;-81
2023/07/19 10:07:08;;;;;;;9.65;5.30;;;;;;;;;;5044537;28;20025;-80
2023/07/19 10:09:40;;;;;;;7.18;4.22;;;;;;;;;;5045629;28;20032;-81
2023/07/19 10:12:18;;;;;;;7.38;4.63;;;;;;;;;;5062007;28;20029;-82
2023/07/19 10:14:58;;;;;;;9.13;4.80;;;;;;;;;;5043877;28;20041;-82
2023/07/19 10:17:24;;;;;;;7.20;4.82;;;;;;;;;;5039275;28;20033;-83
2023/07/19 10:20:12;;;;;;;9.68;4.90;;;;;;;;;;5038920;28;20424;-81
2023/07/19 10:22:55;;;;;;;10.63;4.80;;;;;;;;;;5038858;28;20037;-81
2023/07/19 10:25:25;;;;;;;10.27;4.97;;;;;;;;;;5055593;28;20053;-82
2023/07/19 10:28:07;;;;;;;14.20;5.10;;;;;;;;;;5038594;28;20035;-82
2023/07/19 10:30:45;;;;;;;7.20;4.97;;;;;;;;;;5039046;28;20064;-80
2023/07/19 10:33:20;;;;;;;6.85;5.00;;;;;;;;;;5056379;28;20036;-82
2023/07/19 10:35:56;;;;;;;7.28;4.85;;;;;;;;;;5056834;28;20033;-81
2023/07/19 10:38:26;;;;;;;6.30;5.07;;;;;;;;;;5038660;28;20039;-82
2023/07/19 10:40:56;;;;;;;10.48;5.18;;;;;;;;;;5038550;28;20421;-82
2023/07/19 10:43:24;;;;;;;7.22;5.13;;;;;;;;;;5056036;28;20094;-81
2023/07/19 10:45:51;;;;;;;11.10;5.65;;;;;;;;;;5038285;28;20482;-81
2023/07/19 10:48:16;;;;;;;10.82;5.22;;;;;;;;;;5055816;28;20036;-82
2023/07/19 10:50:43;;;;;;;8.18;5.32;;;;;;;;;;5056261;28;20029;-81
2023/07/19 10:53:08;;;;;;;11.88;5.80;;;;;;;;;;5021933;28;20040;-81
2023/07/19 10:55:34;;;;;;;7.22;5.25;;;;;;;;;;5055887;28;20029;-82
2023/07/19 10:57:59;;;;;;;7.60;5.30;;;;;;;;;;5038341;28;20025;-82
2023/07/19 11:00:25;;;;;;;9.77;5.40;;;;;;;;;;5055808;28;20487;-82
2023/07/19 11:02:52;;;;;;;7.72;5.40;;;;;;;;;;5055758;28;20033;-83
2023/07/19 11:05:17;;;;;;;23.17;5.38;;;;;;;;;;5021945;28;20041;-82
2023/07/19 11:07:43;;;;;;;10.93;5.50;;;;;;;;;;5055755;28;20036;-82
2023/07/19 11:10:09;;;;;;;11.25;5.45;;;;;;;;;;5037840;28;20059;-82
2023/07/19 11:12:34;;;;;;;8.15;5.43;;;;;;;;;;5021417;28;20029;-81
2023/07/19 11:15:01;;;;;;;8.65;5.65;;;;;;;;;;5055493;28;20025;-82
2023/07/19 11:17:30;;;;;;;11.85;5.57;;;;;;;;;;5055149;28;20090;-81
2023/07/19 11:20:00;;;;;;;10.77;6.00;;;;;;;;;;5038166;28;20033;-82
2023/07/19 11:22:26;;;;;;;9.93;6.68;;;;;;;;;;5038125;28;20667;-82
2023/07/19 11:24:53;;;;;;;8.25;6.45;;;;;;;;;;5037533;28;20112;-80
2023/07/19 11:27:19;;;;;;;9.02;6.40;;;;;;;;;;5055405;28;20032;-81
2023/07/19 11:29:49;;;;;;;8.23;6.10;;;;;;;;;;5037658;28;20025;-81
2023/07/19 11:32:23;;;;;;;8.85;6.50;;;;;;;;;;5020989;28;20040;-82
2023/07/19 11:34:56;;;;;;;11.07;6.35;;;;;;;;;;5020623;28;20021;-82
2023/07/19 11:37:23;;;;;;;8.88;6.60;;;;;;;;;;5036424;28;20025;-82
2023/07/19 11:39:49;;;;;;;11.70;6.30;;;;;;;;;;5036406;28;20033;-82
2023/07/19 11:42:35;;;;;;;11.25;6.70;;;;;;;;;;5036884;28;20033;-82
2023/07/19 11:45:15;;;;;;;7.47;6.07;;;;;;;;;;5038968;28;20025;-83
2023/07/19 11:47:42;;;;;;;10.75;7.00;;;;;;;;;;5038443;28;20043;-82
2023/07/19 11:50:08;;;;;;;10.65;7.18;;;;;;;;;;5020611;28;20021;-82
2023/07/19 11:52:44;;;;;;;8.18;6.60;;;;;;;;;;5021124;28;20029;-81
2023/07/19 11:55:11;;;;;;;14.02;7.30;;;;;;;;;;5035609;28;20460;-82
2023/07/19 11:57:38;;;;;;;10.50;7.35;;;;;;;;;;5019082;28;20032;-82
2023/07/19 12:00:05;;;;;;;9.43;6.70;;;;;;;;;;5035125;28;20025;-82
2023/07/19 12:02:31;;;;;;;11.45;6.20;;;;;;;;;;5018784;28;20089;-82
2023/07/19 12:04:56;;;;;;;12.15;6.95;;;;;;;;;;5053066;28;20045;-82
2023/07/19 12:07:21;;;;;;;13.02;7.07;;;;;;;;;;5035228;28;20028;-82
2023/07/19 12:09:47;;;;;;;9.32;6.53;;;;;;;;;;5054089;28;20055;-82
2023/07/19 12:12:13;;;;;;;10.68;6.43;;;;;;;;;;5036791;28;20388;-82
2023/07/19 12:14:39;;;;;;;14.77;7.22;;;;;;;;;;5036420;28;20032;-82
2023/07/19 12:17:06;;;;;;;10.35;6.68;;;;;;;;;;5037163;28;20033;-82
2023/07/19 12:19:33;;;;;;;10.38;7.13;;;;;;;;;;5054162;28;20039;-81
2023/07/19 12:21:58;;;;;;;10.02;6.70;;;;;;;;;;5054222;28;20372;-83
2023/07/19 12:24:23;;;;;;;8.05;6.88;;;;;;;;;;5036607;28;20025;-82
2023/07/19 12:26:49;;;;;;;12.30;7.28;;;;;;;;;;5036559;28;20040;-82
2023/07/19 12:29:14;;;;;;;11.00;7.50;;;;;;;;;;5036091;28;20021;-83
2023/07/19 12:31:40;;;;;;;8.85;7.22;;;;;;;;;;5037036;28;20017;-82
2023/07/19 12:34:05;;;;;;;10.60;7.10;;;;;;;;;;5054052;28;20521;-83
2023/07/19 12:36:31;;;;;;;10.40;7.25;;;;;;;;;;5036544;28;20028;-82
2023/07/19 12:38:56;;;;;;;10.80;7.13;;;;;;;;;;5054080;28;20025;-82
2023/07/19 12:41:22;;;;;;;16.83;7.75;;;;;;;;;;5053850;28;20055;-82
2023/07/19 12:43:48;;;;;;;9.18;7.63;;;;;;;;;;5019230;28;20127;-82
2023/07/19 12:46:14;;;;;;;9.25;6.93;;;;;;;;;;5019830;28;20037;-82
2023/07/19 12:48:40;;;;;;;12.82;7.30;;;;;;;;;;5035745;28;20432;-81
2023/07/19 12:51:06;;;;;;;12.77;6.90;;;;;;;;;;5003687;28;20075;-83
2023/07/19 12:53:33;;;;;;;10.43;7.32;;;;;;;;;;5053951;28;20025;-82
2023/07/19 12:55:58;;;;;;;7.88;7.03;;;;;;;;;;5054068;28;20025;-82
2023/07/19 12:58:24;;;;;;;12.40;7.30;;;;;;;;;;5053717;28;20024;-83
2023/07/19 13:00:50;;;;;;;15.40;7.15;;;;;;;;;;5019843;28;20029;-82
2023/07/19 13:03:15;;;;;;;16.17;8.00;;;;;;;;;;5019867;28;20118;-82
2023/07/19 13:05:41;;;;;;;9.82;8.00;;;;;;;;;;5054028;28;20048;-82
2023/07/19 13:08:08;;;;;;;9.40;7.35;;;;;;;;;;5056037;28;20068;-83
2023/07/19 13:10:33;;;;;;;12.35;7.55;;;;;;;;;;5056057;28;20380;-82
2023/07/19 13:12:59;;;;;;;19.58;7.90;;;;;;;;;;5054445;28;20056;-82
2023/07/19 13:15:24;;;;;;;11.27;7.13;;;;;;;;;;5040564;28;20029;-82
2023/07/19 13:17:50;;;;;;;11.20;7.15;;;;;;;;;;5066791;28;20094;-81
2023/07/19 13:20:15;;;;;;;9.35;7.07;;;;;;;;;;5067884;28;20033;-81
2023/07/19 13:22:41;;;;;;;12.05;6.93;;;;;;;;;;5068539;28;20044;-83
2023/07/19 13:25:06;;;;;;;10.77;7.35;;;;;;;;;;5052626;28;20052;-82
2023/07/19 13:27:32;;;;;;;9.57;6.32;;;;;;;;;;5035497;28;20032;-82
2023/07/19 13:29:58;;;;;;;13.82;7.40;;;;;;;;;;5053917;28;20032;-82
2023/07/19 13:32:23;;;;;;;7.97;7.15;;;;;;;;;;5054072;28;20120;-81
2023/07/19 13:34:49;;;;;;;11.90;7.22;;;;;;;;;;5053336;28;20372;-82
2023/07/19 13:37:14;;;;;;;11.27;7.22;;;;;;;;;;5035705;28;20035;-81
2023/07/19 13:39:40;;;;;;;15.57;7.80;;;;;;;;;;5019592;28;20024;-82
2023/07/19 13:42:05;;;;;;;12.00;7.60;;;;;;;;;;5035346;28;20032;-82
2023/07/19 13:44:31;;;;;;;7.55;6.70;;;;;;;;;;5035577;28;20033;-81
2023/07/19 13:46:58;;;;;;;14.73;7.40;;;;;;;;;;5018965;28;20037;-82
2023/07/19 13:49:23;;;;;;;17.73;7.75;;;;;;;;;;5053270;28;20167;-82
2023/07/19 13:51:49;;;;;;;14.75;7.13;;;;;;;;;;5052361;28;20064;-84
2023/07/19 13:54:14;;;;;;;12.98;6.85;;;;;;;;;;5053131;28;20029;-83
2023/07/19 13:56:40;;;;;;;16.52;7.43;;;;;;;;;;5035118;28;20025;-80
2023/07/19 13:59:05;;;;;;;9.63;7.03;;;;;;;;;;5053244;28;20029;-80
2023/07/19 14:01:30;;;;;;;10.30;7.05;;;;;;;;;;5055637;28;20025;-82
2023/07/19 14:03:56;;;;;;;10.90;7.15;;;;;;;;;;5038927;28;20041;-83
2023/07/19 14:06:21;;;;;;;10.80;6.82;;;;;;;;;;5056547;28;20052;-83
2023/07/19 14:08:47;;;;;;;16.52;7.03;;;;;;;;;;5056676;28;20025;-83
2023/07/19 14:11:12;;;;;;;14.77;6.97;;;;;;;;;;5056461;28;20032;-83
2023/07/19 14:13:38;;;;;;;13.93;7.68;;;;;;;;;;5056808;28;20488;-83
2023/07/19 14:16:04;;;;;;;13.70;7.53;;;;;;;;;;5056694;28;20459;-82
2023/07/19 14:18:29;;;;;;;11.32;7.20;;;;;;;;;;5056514;28;20059;-82
2023/07/19 14:20:55;;;;;;;11.68;7.75;;;;;;;;;;5056530;28;20021;-82
2023/07/19 14:23:22;;;;;;;14.60;7.28;;;;;;;;;;5056316;28;20120;-82
2023/07/19 14:25:47;;;;;;;11.70;7.07;;;;;;;;;;5056121;28;20025;-82
2023/07/19 14:28:13;;;;;;;16.58;6.97;;;;;;;;;;5056672;28;20415;-81
2023/07/19 14:30:38;;;;;;;10.75;7.80;;;;;;;;;;5056423;28;20029;-83